sensor_id;sensor_type;location;lat;lon;timestamp;pressure;altitude;pressure_sealevel;temperature;humidity
35848;BME280;22332;51.954;20.118;2023-03-22T00:00:41;100138.70;;;2.78;74.67
35848;BME280;22332;51.954;20.118;2023-03-22T00:03:57;100134.77;;;2.74;74.57
35848;BME280;22332;51.954;20.118;2023-03-22T00:07:02;100130.98;;;2.70;74.56
35848;BME280;22332;51.954;20.118;2023-03-22T00:10:09;100127.55;;;2.66;74.54
35848;BME280;22332;51.954;20.118;2023-03-22T00:13:15;100126.16;;;2.64;74.54
35848;BME280;22332;51.954;20.118;2023-03-22T00:16:21;100119.84;;;2.59;74.62
35848;BME280;22332;51.954;20.118;2023-03-22T00:19:26;100116.42;;;2.57;74.71
35848;BME280;22332;51.954;20.118;2023-03-22T00:22:33;100115.39;;;2.57;74.75
35848;BME280;22332;51.954;20.118;2023-03-22T00:25:38;100118.36;;;2.60;74.69
35848;BME280;22332;51.954;20.118;2023-03-22T00:28:44;100113.55;;;2.61;74.49
35848;BME280;22332;51.954;20.118;2023-03-22T00:31:49;100114.33;;;2.60;74.53
35848;BME280;22332;51.954;20.118;2023-03-22T00:34:58;100111.36;;;2.57;74.56
35848;BME280;22332;51.954;20.118;2023-03-22T00:38:05;100117.23;;;2.56;74.65
35848;BME280;22332;51.954;20.118;2023-03-22T00:41:18;100109.34;;;2.55;74.50
35848;BME280;22332;51.954;20.118;2023-03-22T00:44:24;100106.94;;;2.54;74.56
35848;BME280;22332;51.954;20.118;2023-03-22T00:47:30;100103.84;;;2.51;74.70
35848;BME280;22332;51.954;20.118;2023-03-22T00:50:36;100099.69;;;2.48;74.65
35848;BME280;22332;51.954;20.118;2023-03-22T00:53:43;100099.69;;;2.43;74.95
35848;BME280;22332;51.954;20.118;2023-03-22T00:56:48;100099.05;;;2.39;74.88
35848;BME280;22332;51.954;20.118;2023-03-22T00:59:54;100105.58;;;2.39;74.85
35848;BME280;22332;51.954;20.118;2023-03-22T01:03:03;100103.33;;;2.35;74.93
35848;BME280;22332;51.954;20.118;2023-03-22T01:06:09;100102.31;;;2.32;75.14
35848;BME280;22332;51.954;20.118;2023-03-22T01:09:15;100100.02;;;2.32;75.35
35848;BME280;22332;51.954;20.118;2023-03-22T01:12:22;100104.65;;;2.34;75.40
35848;BME280;22332;51.954;20.118;2023-03-22T01:15:27;100101.32;;;2.36;75.18
35848;BME280;22332;51.954;20.118;2023-03-22T01:18:33;100098.45;;;2.40;75.24
35848;BME280;22332;51.954;20.118;2023-03-22T01:21:39;100095.30;;;2.45;74.94
35848;BME280;22332;51.954;20.118;2023-03-22T01:24:44;100092.71;;;2.50;75.10
35848;BME280;22332;51.954;20.118;2023-03-22T01:27:50;100092.20;;;2.52;75.07
35848;BME280;22332;51.954;20.118;2023-03-22T01:30:56;100089.86;;;2.50;75.23
35848;BME280;22332;51.954;20.118;2023-03-22T01:34:04;100081.72;;;2.49;75.36
35848;BME280;22332;51.954;20.118;2023-03-22T01:37:10;100073.75;;;2.47;75.79
35848;BME280;22332;51.954;20.118;2023-03-22T01:40:19;100067.79;;;2.49;76.31
35848;BME280;22332;51.954;20.118;2023-03-22T01:43:25;100067.52;;;2.48;76.43
35848;BME280;22332;51.954;20.118;2023-03-22T01:46:31;100063.77;;;2.47;76.14
35848;BME280;22332;51.954;20.118;2023-03-22T01:49:38;100062.33;;;2.45;76.21
35848;BME280;22332;51.954;20.118;2023-03-22T01:52:45;100055.46;;;2.42;76.24
35848;BME280;22332;51.954;20.118;2023-03-22T01:56:00;100049.70;;;2.45;76.57
35848;BME280;22332;51.954;20.118;2023-03-22T01:59:10;100044.36;;;2.51;76.69
35848;BME280;22332;51.954;20.118;2023-03-22T02:02:31;100039.23;;;2.56;76.60
35848;BME280;22332;51.954;20.118;2023-03-22T02:05:45;100040.11;;;2.61;76.34
35848;BME280;22332;51.954;20.118;2023-03-22T02:08:51;100038.48;;;2.64;76.58
35848;BME280;22332;51.954;20.118;2023-03-22T02:12:07;100038.34;;;2.66;76.31
35848;BME280;22332;51.954;20.118;2023-03-22T02:15:23;100032.20;;;2.64;76.16
35848;BME280;22332;51.954;20.118;2023-03-22T02:19:00;100037.71;;;2.58;76.29
35848;BME280;22332;51.954;20.118;2023-03-22T02:22:36;100028.83;;;2.54;76.43
35848;BME280;22332;51.954;20.118;2023-03-22T02:26:16;100029.16;;;2.52;76.79
35848;BME280;22332;51.954;20.118;2023-03-22T02:29:36;100030.01;;;2.52;77.37
35848;BME280;22332;51.954;20.118;2023-03-22T02:33:04;100024.52;;;2.50;77.53
35848;BME280;22332;51.954;20.118;2023-03-22T02:36:29;100028.91;;;2.53;77.88
35848;BME280;22332;51.954;20.118;2023-03-22T02:39:41;100024.90;;;2.58;78.21
35848;BME280;22332;51.954;20.118;2023-03-22T02:42:56;100009.11;;;2.65;78.49
35848;BME280;22332;51.954;20.118;2023-03-22T02:46:08;100008.14;;;2.74;78.41
35848;BME280;22332;51.954;20.118;2023-03-22T02:49:19;100004.00;;;2.80;78.33
35848;BME280;22332;51.954;20.118;2023-03-22T02:52:34;100005.59;;;2.83;78.14
35848;BME280;22332;51.954;20.118;2023-03-22T02:55:47;100005.45;;;2.80;77.92
35848;BME280;22332;51.954;20.118;2023-03-22T02:58:57;100004.14;;;2.78;77.88
35848;BME280;22332;51.954;20.118;2023-03-22T03:02:05;99999.40;;;2.76;77.59
35848;BME280;22332;51.954;20.118;2023-03-22T03:05:14;99998.17;;;2.70;77.53
35848;BME280;22332;51.954;20.118;2023-03-22T03:08:22;99997.28;;;2.63;77.41
35848;BME280;22332;51.954;20.118;2023-03-22T03:11:28;99999.98;;;2.55;77.54
35848;BME280;22332;51.954;20.118;2023-03-22T03:14:34;100001.85;;;2.48;77.54
35848;BME280;22332;51.954;20.118;2023-03-22T03:17:47;100002.17;;;2.44;78.00
35848;BME280;22332;51.954;20.118;2023-03-22T03:21:04;100002.65;;;2.42;78.41
35848;BME280;22332;51.954;20.118;2023-03-22T03:24:19;100007.80;;;2.44;78.22
35848;BME280;22332;51.954;20.118;2023-03-22T03:27:32;100001.52;;;2.48;78.31
35848;BME280;22332;51.954;20.118;2023-03-22T03:30:46;99998.05;;;2.55;78.53
35848;BME280;22332;51.954;20.118;2023-03-22T03:33:59;99999.67;;;2.62;78.65
35848;BME280;22332;51.954;20.118;2023-03-22T03:37:11;100001.48;;;2.66;78.91
35848;BME280;22332;51.954;20.118;2023-03-22T03:40:21;99999.33;;;2.69;79.14
35848;BME280;22332;51.954;20.118;2023-03-22T03:43:28;99998.55;;;2.70;79.12
35848;BME280;22332;51.954;20.118;2023-03-22T03:46:34;99998.90;;;2.70;78.97
35848;BME280;22332;51.954;20.118;2023-03-22T03:49:40;99991.30;;;2.68;78.94
35848;BME280;22332;51.954;20.118;2023-03-22T03:52:46;99993.99;;;2.65;78.97
35848;BME280;22332;51.954;20.118;2023-03-22T03:55:51;99991.08;;;2.62;78.79
35848;BME280;22332;51.954;20.118;2023-03-22T03:58:57;99989.73;;;2.61;78.70
35848;BME280;22332;51.954;20.118;2023-03-22T04:02:02;99991.31;;;2.66;78.68
35848;BME280;22332;51.954;20.118;2023-03-22T04:05:11;99981.44;;;2.74;78.74
35848;BME280;22332;51.954;20.118;2023-03-22T04:08:17;99977.95;;;2.81;78.80
35848;BME280;22332;51.954;20.118;2023-03-22T04:11:23;99973.42;;;2.85;79.20
35848;BME280;22332;51.954;20.118;2023-03-22T04:14:31;99975.49;;;2.93;79.62
35848;BME280;22332;51.954;20.118;2023-03-22T04:17:39;99971.42;;;3.01;79.86
35848;BME280;22332;51.954;20.118;2023-03-22T04:20:47;99972.17;;;3.05;79.64
35848;BME280;22332;51.954;20.118;2023-03-22T04:23:56;99968.59;;;3.06;79.76
35848;BME280;22332;51.954;20.118;2023-03-22T04:27:03;99967.19;;;3.11;80.08
35848;BME280;22332;51.954;20.118;2023-03-22T04:30:16;99965.04;;;3.21;80.12
35848;BME280;22332;51.954;20.118;2023-03-22T04:33:38;99966.14;;;3.32;80.42
35848;BME280;22332;51.954;20.118;2023-03-22T04:37:03;99964.96;;;3.46;80.37
35848;BME280;22332;51.954;20.118;2023-03-22T04:40:12;99961.15;;;3.59;80.37
35848;BME280;22332;51.954;20.118;2023-03-22T04:43:32;99959.72;;;3.73;80.51
35848;BME280;22332;51.954;20.118;2023-03-22T04:46:41;99957.63;;;3.82;80.55
35848;BME280;22332;51.954;20.118;2023-03-22T04:49:48;99957.69;;;3.91;80.71
35848;BME280;22332;51.954;20.118;2023-03-22T04:52:54;99963.45;;;3.99;80.76
35848;BME280;22332;51.954;20.118;2023-03-22T04:56:02;99964.80;;;4.06;80.65
35848;BME280;22332;51.954;20.118;2023-03-22T04:59:09;99968.85;;;4.15;80.91
35848;BME280;22332;51.954;20.118;2023-03-22T05:02:14;99966.45;;;4.28;81.07
35848;BME280;22332;51.954;20.118;2023-03-22T05:05:21;99969.11;;;4.41;81.11
35848;BME280;22332;51.954;20.118;2023-03-22T05:08:28;99971.96;;;4.54;81.25
35848;BME280;22332;51.954;20.118;2023-03-22T05:11:35;99968.23;;;4.64;81.28
35848;BME280;22332;51.954;20.118;2023-03-22T05:15:00;99969.88;;;4.74;81.48
35848;BME280;22332;51.954;20.118;2023-03-22T05:18:11;99974.09;;;4.83;81.46
35848;BME280;22332;51.954;20.118;2023-03-22T05:21:18;99973.98;;;4.93;81.63
35848;BME280;22332;51.954;20.118;2023-03-22T05:24:26;99974.48;;;5.04;81.54
35848;BME280;22332;51.954;20.118;2023-03-22T05:27:32;99972.23;;;5.15;81.74
35848;BME280;22332;51.954;20.118;2023-03-22T05:30:58;99973.83;;;5.25;81.88
35848;BME280;22332;51.954;20.118;2023-03-22T05:34:09;99978.02;;;5.37;81.88
35848;BME280;22332;51.954;20.118;2023-03-22T05:37:15;99975.69;;;5.45;82.17
35848;BME280;22332;51.954;20.118;2023-03-22T05:40:29;99975.17;;;5.54;81.98
35848;BME280;22332;51.954;20.118;2023-03-22T05:43:35;99971.33;;;5.62;82.23
35848;BME280;22332;51.954;20.118;2023-03-22T05:46:41;99971.48;;;5.71;82.40
35848;BME280;22332;51.954;20.118;2023-03-22T05:50:13;99976.61;;;5.83;82.48
35848;BME280;22332;51.954;20.118;2023-03-22T05:53:19;99977.69;;;5.94;82.43
35848;BME280;22332;51.954;20.118;2023-03-22T05:56:43;99976.27;;;6.02;82.41
35848;BME280;22332;51.954;20.118;2023-03-22T05:59:49;99979.63;;;6.11;82.32
35848;BME280;22332;51.954;20.118;2023-03-22T06:03:01;99982.55;;;6.18;82.12
35848;BME280;22332;51.954;20.118;2023-03-22T06:06:11;99974.20;;;6.24;82.32
35848;BME280;22332;51.954;20.118;2023-03-22T06:09:38;99980.83;;;6.36;82.24
35848;BME280;22332;51.954;20.118;2023-03-22T06:12:46;99985.70;;;6.45;82.29
35848;BME280;22332;51.954;20.118;2023-03-22T06:16:01;99985.58;;;6.55;82.18
35848;BME280;22332;51.954;20.118;2023-03-22T06:19:07;99980.63;;;6.63;82.18
35848;BME280;22332;51.954;20.118;2023-03-22T06:22:12;99982.17;;;6.65;81.85
35848;BME280;22332;51.954;20.118;2023-03-22T06:25:18;99978.10;;;6.65;82.31
35848;BME280;22332;51.954;20.118;2023-03-22T06:28:24;99980.52;;;6.64;82.15
35848;BME280;22332;51.954;20.118;2023-03-22T06:31:33;99984.23;;;6.64;82.16
35848;BME280;22332;51.954;20.118;2023-03-22T06:34:42;99983.39;;;6.61;82.05
35848;BME280;22332;51.954;20.118;2023-03-22T06:37:48;99984.96;;;6.63;82.05
35848;BME280;22332;51.954;20.118;2023-03-22T06:40:54;99978.59;;;6.68;82.36
35848;BME280;22332;51.954;20.118;2023-03-22T06:44:00;99974.52;;;6.74;82.47
35848;BME280;22332;51.954;20.118;2023-03-22T06:47:25;99972.44;;;6.79;82.22
35848;BME280;22332;51.954;20.118;2023-03-22T06:50:50;99969.58;;;6.86;82.54
35848;BME280;22332;51.954;20.118;2023-03-22T06:54:02;99971.52;;;6.92;82.54
35848;BME280;22332;51.954;20.118;2023-03-22T06:57:08;99971.17;;;6.96;82.39
35848;BME280;22332;51.954;20.118;2023-03-22T07:00:16;99969.63;;;7.03;82.51
35848;BME280;22332;51.954;20.118;2023-03-22T07:03:21;99964.72;;;7.13;82.40
35848;BME280;22332;51.954;20.118;2023-03-22T07:06:38;99960.87;;;7.22;82.68
35848;BME280;22332;51.954;20.118;2023-03-22T07:09:44;99965.23;;;7.26;82.73
35848;BME280;22332;51.954;20.118;2023-03-22T07:12:50;99968.40;;;7.29;82.84
35848;BME280;22332;51.954;20.118;2023-03-22T07:15:57;99966.33;;;7.32;82.80
35848;BME280;22332;51.954;20.118;2023-03-22T07:19:12;99952.91;;;7.35;82.86
35848;BME280;22332;51.954;20.118;2023-03-22T07:22:20;99950.65;;;7.41;82.97
35848;BME280;22332;51.954;20.118;2023-03-22T07:25:29;99943.46;;;7.46;83.16
35848;BME280;22332;51.954;20.118;2023-03-22T07:28:43;99940.23;;;7.55;83.27
35848;BME280;22332;51.954;20.118;2023-03-22T07:31:51;99935.89;;;7.67;83.14
35848;BME280;22332;51.954;20.118;2023-03-22T07:35:03;99938.48;;;7.81;83.15
35848;BME280;22332;51.954;20.118;2023-03-22T07:38:09;99937.46;;;7.98;83.00
35848;BME280;22332;51.954;20.118;2023-03-22T07:41:15;99932.57;;;8.12;82.97
35848;BME280;22332;51.954;20.118;2023-03-22T07:44:31;99933.08;;;8.25;82.86
35848;BME280;22332;51.954;20.118;2023-03-22T07:48:05;99931.66;;;8.31;82.78
35848;BME280;22332;51.954;20.118;2023-03-22T07:51:37;99927.81;;;8.34;82.91
35848;BME280;22332;51.954;20.118;2023-03-22T07:54:42;99921.01;;;8.35;82.95
35848;BME280;22332;51.954;20.118;2023-03-22T07:57:48;99916.78;;;8.36;82.78
35848;BME280;22332;51.954;20.118;2023-03-22T08:00:55;99913.52;;;8.39;82.77
35848;BME280;22332;51.954;20.118;2023-03-22T08:04:22;99909.58;;;8.43;82.57
35848;BME280;22332;51.954;20.118;2023-03-22T08:07:51;99908.55;;;8.47;82.56
35848;BME280;22332;51.954;20.118;2023-03-22T08:10:57;99897.91;;;8.43;82.55
35848;BME280;22332;51.954;20.118;2023-03-22T08:14:03;99896.79;;;8.42;82.72
35848;BME280;22332;51.954;20.118;2023-03-22T08:17:10;99893.42;;;8.40;82.66
35848;BME280;22332;51.954;20.118;2023-03-22T08:20:16;99889.25;;;8.35;82.76
35848;BME280;22332;51.954;20.118;2023-03-22T08:23:28;99884.27;;;8.35;82.74
35848;BME280;22332;51.954;20.118;2023-03-22T08:26:52;99889.54;;;8.38;82.77
35848;BME280;22332;51.954;20.118;2023-03-22T08:30:07;99891.33;;;8.45;82.88
35848;BME280;22332;51.954;20.118;2023-03-22T08:33:14;99890.28;;;8.58;82.87
35848;BME280;22332;51.954;20.118;2023-03-22T08:36:21;99887.35;;;8.74;83.00
35848;BME280;22332;51.954;20.118;2023-03-22T08:39:35;99892.41;;;8.90;82.83
35848;BME280;22332;51.954;20.118;2023-03-22T08:43:01;99893.32;;;9.01;82.49
35848;BME280;22332;51.954;20.118;2023-03-22T08:46:07;99890.72;;;9.04;82.37
35848;BME280;22332;51.954;20.118;2023-03-22T08:49:13;99887.25;;;9.12;82.32
35848;BME280;22332;51.954;20.118;2023-03-22T08:52:26;99889.45;;;9.24;82.52
35848;BME280;22332;51.954;20.118;2023-03-22T08:55:36;99889.45;;;9.38;82.32
35848;BME280;22332;51.954;20.118;2023-03-22T08:58:48;99891.01;;;9.56;82.45
35848;BME280;22332;51.954;20.118;2023-03-22T09:02:04;99892.79;;;9.72;81.90
35848;BME280;22332;51.954;20.118;2023-03-22T09:05:10;99890.41;;;9.81;81.85
35848;BME280;22332;51.954;20.118;2023-03-22T09:08:18;99886.27;;;9.89;81.52
35848;BME280;22332;51.954;20.118;2023-03-22T09:11:26;99887.56;;;10.00;81.74
35848;BME280;22332;51.954;20.118;2023-03-22T09:14:32;99879.61;;;10.16;81.78
35848;BME280;22332;51.954;20.118;2023-03-22T09:17:37;99875.05;;;10.36;81.85
35848;BME280;22332;51.954;20.118;2023-03-22T09:20:44;99874.55;;;10.59;81.37
35848;BME280;22332;51.954;20.118;2023-03-22T09:23:50;99877.58;;;10.79;81.12
35848;BME280;22332;51.954;20.118;2023-03-22T09:26:59;99880.34;;;10.95;79.89
35848;BME280;22332;51.954;20.118;2023-03-22T09:30:07;99881.61;;;11.05;80.38
35848;BME280;22332;51.954;20.118;2023-03-22T09:33:12;99880.86;;;11.18;80.65
35848;BME280;22332;51.954;20.118;2023-03-22T09:36:19;99875.45;;;11.30;80.47
35848;BME280;22332;51.954;20.118;2023-03-22T09:39:25;99869.61;;;11.38;79.77
35848;BME280;22332;51.954;20.118;2023-03-22T09:42:35;99869.58;;;11.34;79.61
35848;BME280;22332;51.954;20.118;2023-03-22T09:45:47;99870.34;;;11.33;79.88
35848;BME280;22332;51.954;20.118;2023-03-22T09:48:54;99874.88;;;11.39;80.13
35848;BME280;22332;51.954;20.118;2023-03-22T09:52:00;99875.77;;;11.47;79.74
35848;BME280;22332;51.954;20.118;2023-03-22T09:55:17;99877.78;;;11.53;79.68
35848;BME280;22332;51.954;20.118;2023-03-22T09:58:29;99874.67;;;11.59;79.43
35848;BME280;22332;51.954;20.118;2023-03-22T10:01:42;99876.38;;;11.69;79.53
35848;BME280;22332;51.954;20.118;2023-03-22T10:04:58;99877.47;;;11.77;79.11
35848;BME280;22332;51.954;20.118;2023-03-22T10:08:20;99878.89;;;11.77;79.21
35848;BME280;22332;51.954;20.118;2023-03-22T10:11:37;99875.96;;;11.74;78.99
35848;BME280;22332;51.954;20.118;2023-03-22T10:14:49;99879.34;;;11.68;79.26
35848;BME280;22332;51.954;20.118;2023-03-22T10:17:56;99880.16;;;11.64;79.11
35848;BME280;22332;51.954;20.118;2023-03-22T10:21:04;99875.83;;;11.62;79.05
35848;BME280;22332;51.954;20.118;2023-03-22T10:24:14;99869.11;;;11.64;78.92
35848;BME280;22332;51.954;20.118;2023-03-22T10:27:22;99863.77;;;11.75;78.92
35848;BME280;22332;51.954;20.118;2023-03-22T10:30:36;99857.85;;;11.89;78.89
35848;BME280;22332;51.954;20.118;2023-03-22T10:33:48;99855.42;;;12.04;78.90
35848;BME280;22332;51.954;20.118;2023-03-22T10:36:59;99854.42;;;12.18;78.60
35848;BME280;22332;51.954;20.118;2023-03-22T10:40:09;99855.21;;;12.32;77.99
35848;BME280;22332;51.954;20.118;2023-03-22T10:43:21;99853.04;;;12.43;77.83
35848;BME280;22332;51.954;20.118;2023-03-22T10:46:32;99856.46;;;12.55;77.71
35848;BME280;22332;51.954;20.118;2023-03-22T10:49:43;99852.15;;;12.60;77.34
35848;BME280;22332;51.954;20.118;2023-03-22T10:52:53;99855.36;;;12.58;77.10
35848;BME280;22332;51.954;20.118;2023-03-22T10:56:02;99849.19;;;12.50;76.81
35848;BME280;22332;51.954;20.118;2023-03-22T10:59:08;99844.88;;;12.52;77.31
35848;BME280;22332;51.954;20.118;2023-03-22T11:02:33;99845.02;;;12.60;77.31
35848;BME280;22332;51.954;20.118;2023-03-22T11:05:39;99843.05;;;12.66;77.22
35848;BME280;22332;51.954;20.118;2023-03-22T11:08:46;99839.95;;;12.70;76.52
35848;BME280;22332;51.954;20.118;2023-03-22T11:11:54;99839.09;;;12.72;76.72
35848;BME280;22332;51.954;20.118;2023-03-22T11:15:00;99834.89;;;12.75;76.47
35848;BME280;22332;51.954;20.118;2023-03-22T11:18:10;99830.19;;;12.77;76.62
35848;BME280;22332;51.954;20.118;2023-03-22T11:21:18;99821.20;;;12.82;76.04
35848;BME280;22332;51.954;20.118;2023-03-22T11:24:27;99814.97;;;12.90;76.50
35848;BME280;22332;51.954;20.118;2023-03-22T11:27:34;99813.06;;;13.02;76.69
35848;BME280;22332;51.954;20.118;2023-03-22T11:30:40;99802.47;;;13.13;76.43
35848;BME280;22332;51.954;20.118;2023-03-22T11:34:02;99796.48;;;13.27;76.19
35848;BME280;22332;51.954;20.118;2023-03-22T11:37:09;99791.84;;;13.43;75.83
35848;BME280;22332;51.954;20.118;2023-03-22T11:40:18;99786.09;;;13.56;75.83
35848;BME280;22332;51.954;20.118;2023-03-22T11:43:25;99780.95;;;13.68;75.91
35848;BME280;22332;51.954;20.118;2023-03-22T11:46:32;99777.20;;;13.72;75.23
35848;BME280;22332;51.954;20.118;2023-03-22T11:49:41;99776.79;;;13.65;75.44
35848;BME280;22332;51.954;20.118;2023-03-22T11:52:49;99763.98;;;13.60;75.22
35848;BME280;22332;51.954;20.118;2023-03-22T11:55:57;99762.97;;;13.60;75.60
35848;BME280;22332;51.954;20.118;2023-03-22T11:59:08;99764.90;;;13.56;74.95
35848;BME280;22332;51.954;20.118;2023-03-22T12:02:22;99754.14;;;13.50;75.60
35848;BME280;22332;51.954;20.118;2023-03-22T12:05:31;99755.00;;;13.50;75.71
35848;BME280;22332;51.954;20.118;2023-03-22T12:08:41;99747.61;;;13.47;75.28
35848;BME280;22332;51.954;20.118;2023-03-22T12:11:47;99745.46;;;13.44;75.47
35848;BME280;22332;51.954;20.118;2023-03-22T12:14:58;99745.20;;;13.43;74.98
35848;BME280;22332;51.954;20.118;2023-03-22T12:18:08;99740.18;;;13.43;75.56
35848;BME280;22332;51.954;20.118;2023-03-22T12:21:16;99739.09;;;13.50;75.56
35848;BME280;22332;51.954;20.118;2023-03-22T12:24:28;99736.77;;;13.65;74.96
35848;BME280;22332;51.954;20.118;2023-03-22T12:27:37;99732.48;;;13.87;75.60
35848;BME280;22332;51.954;20.118;2023-03-22T12:30:47;99731.32;;;14.19;75.41
35848;BME280;22332;51.954;20.118;2023-03-22T12:33:55;99727.56;;;14.42;74.94
35848;BME280;22332;51.954;20.118;2023-03-22T12:37:05;99724.54;;;14.59;74.71
35848;BME280;22332;51.954;20.118;2023-03-22T12:40:20;99723.13;;;14.72;74.61
35848;BME280;22332;51.954;20.118;2023-03-22T12:43:37;99720.14;;;14.90;74.23
35848;BME280;22332;51.954;20.118;2023-03-22T12:46:48;99716.76;;;15.08;74.18
35848;BME280;22332;51.954;20.118;2023-03-22T12:49:59;99714.17;;;15.23;74.10
35848;BME280;22332;51.954;20.118;2023-03-22T12:53:06;99708.98;;;15.27;73.88
35848;BME280;22332;51.954;20.118;2023-03-22T12:56:19;99707.05;;;15.27;73.59
35848;BME280;22332;51.954;20.118;2023-03-22T12:59:29;99711.13;;;15.24;73.55
35848;BME280;22332;51.954;20.118;2023-03-22T13:02:36;99713.70;;;15.20;73.34
35848;BME280;22332;51.954;20.118;2023-03-22T13:05:42;99710.95;;;15.15;73.63
35848;BME280;22332;51.954;20.118;2023-03-22T13:09:14;99706.69;;;15.14;73.56
35848;BME280;22332;51.954;20.118;2023-03-22T13:12:29;99705.23;;;15.14;73.53
35848;BME280;22332;51.954;20.118;2023-03-22T13:15:38;99701.79;;;15.12;73.47
35848;BME280;22332;51.954;20.118;2023-03-22T13:19:17;99699.30;;;15.05;73.33
35848;BME280;22332;51.954;20.118;2023-03-22T13:26:24;99692.58;;;14.96;73.14
35848;BME280;22332;51.954;20.118;2023-03-22T13:29:36;99690.59;;;14.90;73.12
35848;BME280;22332;51.954;20.118;2023-03-22T13:32:48;99692.70;;;14.79;73.27
35848;BME280;22332;51.954;20.118;2023-03-22T13:35:57;99694.64;;;14.69;73.35
35848;BME280;22332;51.954;20.118;2023-03-22T13:39:09;99690.29;;;14.60;72.76
35848;BME280;22332;51.954;20.118;2023-03-22T13:42:20;99683.10;;;14.52;72.89
35848;BME280;22332;51.954;20.118;2023-03-22T13:45:31;99676.98;;;14.63;73.30
35848;BME280;22332;51.954;20.118;2023-03-22T13:49:11;99667.83;;;14.80;72.81
35848;BME280;22332;51.954;20.118;2023-03-22T13:52:33;99662.23;;;15.07;72.98
35848;BME280;22332;51.954;20.118;2023-03-22T13:55:56;99659.63;;;15.42;72.67
35848;BME280;22332;51.954;20.118;2023-03-22T13:59:03;99657.61;;;15.65;72.55
35848;BME280;22332;51.954;20.118;2023-03-22T14:02:16;99650.85;;;15.75;72.17
35848;BME280;22332;51.954;20.118;2023-03-22T14:05:23;99647.83;;;15.76;72.11
35848;BME280;22332;51.954;20.118;2023-03-22T14:08:30;99650.61;;;15.71;71.39
35848;BME280;22332;51.954;20.118;2023-03-22T14:11:43;99644.19;;;15.61;71.64
35848;BME280;22332;51.954;20.118;2023-03-22T14:14:54;99640.86;;;15.55;71.37
35848;BME280;22332;51.954;20.118;2023-03-22T14:18:04;99644.05;;;15.48;71.73
35848;BME280;22332;51.954;20.118;2023-03-22T14:21:14;99640.81;;;15.44;71.22
35848;BME280;22332;51.954;20.118;2023-03-22T14:24:23;99638.85;;;15.40;71.73
35848;BME280;22332;51.954;20.118;2023-03-22T14:27:33;99638.04;;;15.37;71.22
35848;BME280;22332;51.954;20.118;2023-03-22T14:30:40;99634.48;;;15.29;71.21
35848;BME280;22332;51.954;20.118;2023-03-22T14:33:46;99633.02;;;15.24;71.31
35848;BME280;22332;51.954;20.118;2023-03-22T14:36:57;99633.63;;;15.20;71.31
35848;BME280;22332;51.954;20.118;2023-03-22T14:40:13;99627.92;;;15.15;71.41
35848;BME280;22332;51.954;20.118;2023-03-22T14:43:24;99628.46;;;15.09;71.39
35848;BME280;22332;51.954;20.118;2023-03-22T14:46:34;99623.98;;;15.05;71.46
35848;BME280;22332;51.954;20.118;2023-03-22T14:49:42;99618.30;;;15.01;71.44
35848;BME280;22332;51.954;20.118;2023-03-22T14:52:50;99612.32;;;14.97;71.29
35848;BME280;22332;51.954;20.118;2023-03-22T14:55:56;99609.66;;;14.93;71.51
35848;BME280;22332;51.954;20.118;2023-03-22T14:59:03;99607.88;;;14.87;71.21
35848;BME280;22332;51.954;20.118;2023-03-22T15:02:19;99607.96;;;14.81;71.29
35848;BME280;22332;51.954;20.118;2023-03-22T15:05:32;99603.71;;;14.76;71.30
35848;BME280;22332;51.954;20.118;2023-03-22T15:08:39;99604.26;;;14.72;71.29
35848;BME280;22332;51.954;20.118;2023-03-22T15:11:52;99603.46;;;14.68;71.52
35848;BME280;22332;51.954;20.118;2023-03-22T15:14:59;99595.95;;;14.64;71.50
35848;BME280;22332;51.954;20.118;2023-03-22T15:18:06;99595.58;;;14.59;71.52
35848;BME280;22332;51.954;20.118;2023-03-22T15:21:12;99592.00;;;14.54;71.49
35848;BME280;22332;51.954;20.118;2023-03-22T15:24:29;99590.07;;;14.49;71.43
35848;BME280;22332;51.954;20.118;2023-03-22T15:27:38;99588.69;;;14.46;71.69
35848;BME280;22332;51.954;20.118;2023-03-22T15:30:49;99584.34;;;14.44;71.71
35848;BME280;22332;51.954;20.118;2023-03-22T15:33:57;99585.98;;;14.44;71.72
35848;BME280;22332;51.954;20.118;2023-03-22T15:37:03;99585.02;;;14.45;71.60
35848;BME280;22332;51.954;20.118;2023-03-22T15:40:29;99581.38;;;14.46;71.65
35848;BME280;22332;51.954;20.118;2023-03-22T15:43:38;99576.27;;;14.44;71.61
35848;BME280;22332;51.954;20.118;2023-03-22T15:46:54;99571.49;;;14.41;71.54
35848;BME280;22332;51.954;20.118;2023-03-22T15:50:00;99569.23;;;14.34;71.49
35848;BME280;22332;51.954;20.118;2023-03-22T15:53:21;99566.31;;;14.27;71.64
35848;BME280;22332;51.954;20.118;2023-03-22T15:56:30;99562.91;;;14.20;71.79
35848;BME280;22332;51.954;20.118;2023-03-22T15:59:49;99566.34;;;14.10;71.93
35848;BME280;22332;51.954;20.118;2023-03-22T16:02:58;99564.15;;;14.01;71.81
35848;BME280;22332;51.954;20.118;2023-03-22T16:06:07;99563.65;;;13.91;71.84
35848;BME280;22332;51.954;20.118;2023-03-22T16:09:14;99566.19;;;13.82;71.77
35848;BME280;22332;51.954;20.118;2023-03-22T16:12:20;99566.34;;;13.72;71.98
35848;BME280;22332;51.954;20.118;2023-03-22T16:15:29;99561.99;;;13.62;72.14
35848;BME280;22332;51.954;20.118;2023-03-22T16:18:34;99563.52;;;13.53;72.16
35848;BME280;22332;51.954;20.118;2023-03-22T16:21:41;99567.27;;;13.47;72.28
35848;BME280;22332;51.954;20.118;2023-03-22T16:24:47;99563.58;;;13.42;72.41
35848;BME280;22332;51.954;20.118;2023-03-22T16:27:53;99564.02;;;13.37;72.42
35848;BME280;22332;51.954;20.118;2023-03-22T16:30:59;99567.73;;;13.31;72.57
35848;BME280;22332;51.954;20.118;2023-03-22T16:34:05;99573.77;;;13.24;72.71
35848;BME280;22332;51.954;20.118;2023-03-22T16:37:16;99572.30;;;13.15;72.79
35848;BME280;22332;51.954;20.118;2023-03-22T16:40:23;99569.75;;;13.06;72.76
35848;BME280;22332;51.954;20.118;2023-03-22T16:43:31;99567.45;;;12.95;72.84